createdAt,value
2023-02-12T00:03:56.410Z,97154.69
2023-02-12T00:08:59.204Z,97144.22
2023-02-12T00:14:03.098Z,97162.53
2023-02-12T00:19:05.212Z,97138.03
2023-02-12T00:24:07.793Z,97146.75
2023-02-12T00:29:10.999Z,97164.88
2023-02-12T00:34:13.294Z,97123.78
2023-02-12T00:39:16.324Z,97171.69
2023-02-12T00:44:18.443Z,97126.94
2023-02-12T00:49:20.826Z,97139.88
2023-02-12T00:54:22.954Z,97143.94
2023-02-12T00:59:26.233Z,97108.31
2023-02-12T01:04:28.372Z,97145.22
2023-02-12T01:09:30.697Z,97134.25
2023-02-12T01:14:34.036Z,97135.66
2023-02-12T01:19:36.582Z,97127.63
2023-02-12T01:24:38.995Z,97119.50
2023-02-12T01:29:44.814Z,97148.00
2023-02-12T01:34:47.117Z,97095.66
2023-02-12T01:39:49.377Z,97073.00
2023-02-12T01:45:13.541Z,97130.63
2023-02-12T01:50:20.361Z,97125.22
2023-02-12T01:55:22.767Z,97122.72
2023-02-12T02:00:25.681Z,97114.16
2023-02-12T02:05:41.511Z,97098.28
2023-02-12T02:10:44.334Z,97087.25
2023-02-12T02:15:51.565Z,97088.69
2023-02-12T02:21:18.449Z,97085.44
2023-02-12T02:26:39.272Z,97090.09
2023-02-12T02:31:50.696Z,97074.81
2023-02-12T02:37:48.184Z,97061.03
2023-02-12T02:43:16.530Z,97039.94
2023-02-12T02:48:35.453Z,97034.72
2023-02-12T02:53:53.000Z,97056.63
2023-02-12T02:59:13.379Z,97028.19
2023-02-12T03:04:24.834Z,97026.75
2023-02-12T03:09:34.423Z,97013.03
2023-02-12T03:14:40.592Z,97042.53
2023-02-12T03:19:47.774Z,97043.69
2023-02-12T03:25:15.202Z,97011.06
2023-02-12T03:30:17.683Z,97014.44
2023-02-12T03:35:32.300Z,97044.09
2023-02-12T03:40:51.492Z,97029.63
2023-02-12T03:46:28.188Z,96995.91
2023-02-12T03:51:38.695Z,97007.22
2023-02-12T03:56:52.505Z,97006.28
2023-02-12T04:01:58.088Z,97029.31
2023-02-12T04:07:01.242Z,97005.22
2023-02-12T04:12:31.299Z,97027.34
2023-02-12T04:18:02.869Z,97032.38
2023-02-12T04:23:14.425Z,97037.38
2023-02-12T04:28:25.856Z,97040.78
2023-02-12T04:33:36.409Z,97018.41
2023-02-12T04:38:50.406Z,97026.00
2023-02-12T04:43:52.580Z,97019.16
2023-02-12T04:48:58.325Z,97054.19
2023-02-12T04:54:00.520Z,97035.31
2023-02-12T04:59:03.012Z,97047.25
2023-02-12T05:04:06.858Z,97072.81
2023-02-12T05:09:13.548Z,97075.47
2023-02-12T05:14:16.213Z,97094.28
2023-02-12T05:19:18.252Z,97074.75
2023-02-12T05:24:20.450Z,97105.63
2023-02-12T05:29:22.762Z,97090.16
2023-02-12T05:34:24.915Z,97108.22
2023-02-12T05:39:27.036Z,97112.56
2023-02-12T05:44:29.328Z,97117.72
2023-02-12T05:49:31.568Z,97122.97
2023-02-12T05:54:33.924Z,97129.66
2023-02-12T05:59:36.157Z,97139.00
2023-02-12T06:04:38.234Z,97151.00
2023-02-12T06:09:40.420Z,97138.91
2023-02-12T06:14:43.285Z,97174.81
2023-02-12T06:19:45.564Z,97153.19
2023-02-12T06:24:47.884Z,97159.84
2023-02-12T06:29:50.271Z,97162.47
2023-02-12T06:34:52.662Z,97181.22
2023-02-12T06:39:54.871Z,97176.97
2023-02-12T06:44:56.932Z,97181.13
2023-02-12T06:49:59.286Z,97190.59
2023-02-12T06:55:01.634Z,97181.16
2023-02-12T07:00:04.942Z,97195.66
2023-02-12T07:05:07.158Z,97207.81
2023-02-12T07:10:10.001Z,97199.81
2023-02-12T07:15:12.898Z,97224.75
2023-02-12T07:20:15.193Z,97228.97
2023-02-12T07:25:17.382Z,97220.81
2023-02-12T07:30:19.976Z,97224.75
2023-02-12T07:35:22.250Z,97212.03
2023-02-12T07:40:24.474Z,97203.53
2023-02-12T07:45:26.892Z,97229.22
2023-02-12T07:50:29.211Z,97177.69
2023-02-12T07:55:31.778Z,97242.53
2023-02-12T08:00:33.973Z,97186.34
2023-02-12T08:05:36.182Z,97210.34
2023-02-12T08:10:38.324Z,97201.44
2023-02-12T08:15:40.766Z,97229.13
2023-02-12T08:20:42.897Z,97238.66
2023-02-12T08:25:45.127Z,97238.72
2023-02-12T08:30:47.416Z,97250.59
2023-02-12T08:35:49.780Z,97254.91
2023-02-12T08:40:51.915Z,97256.09
2023-02-12T08:45:55.647Z,97258.16
2023-02-12T08:51:11.709Z,97255.31
2023-02-12T08:56:16.990Z,97271.22
2023-02-12T09:01:22.595Z,97244.84
2023-02-12T09:06:28.053Z,97271.19
2023-02-12T09:11:33.166Z,97251.50
2023-02-12T09:16:37.337Z,97240.22
2023-02-12T09:21:39.700Z,97255.00
2023-02-12T09:26:42.156Z,97260.13
2023-02-12T09:31:44.568Z,97258.69
2023-02-12T09:36:46.756Z,97264.00
2023-02-12T09:42:07.336Z,97261.38
2023-02-12T09:47:27.156Z,97253.59
2023-02-12T09:52:29.726Z,97264.59
2023-02-12T09:57:36.656Z,97274.53
2023-02-12T10:02:40.457Z,97227.81
2023-02-12T10:07:56.797Z,97253.69
2023-02-12T10:13:11.360Z,97264.34
2023-02-12T10:18:42.643Z,97259.22
2023-02-12T10:24:01.009Z,97274.69
2023-02-12T10:29:15.138Z,97291.56
2023-02-12T10:34:32.954Z,97317.56
2023-02-12T10:39:46.530Z,97304.50
2023-02-12T10:44:48.856Z,97299.09
2023-02-12T10:50:02.301Z,97311.66
2023-02-12T10:55:33.488Z,97301.34
2023-02-12T11:00:38.146Z,97292.63
2023-02-12T11:05:42.846Z,97304.78
2023-02-12T11:10:45.278Z,97314.13
2023-02-12T11:15:49.804Z,97306.34
2023-02-12T11:20:56.412Z,97322.84
2023-02-12T11:26:21.697Z,97335.03
2023-02-12T11:31:32.047Z,97338.78
2023-02-12T11:36:38.937Z,97327.41
2023-02-12T11:41:42.412Z,97329.63
2023-02-12T11:47:02.293Z,97327.97
2023-02-12T11:52:05.347Z,97339.66
2023-02-12T11:57:07.767Z,97349.41
2023-02-12T12:02:29.564Z,97339.25
2023-02-12T12:07:37.029Z,97356.41
2023-02-12T12:12:57.252Z,97344.44
2023-02-12T12:18:30.582Z,97346.97
2023-02-12T12:23:38.945Z,97362.03
2023-02-12T12:28:48.287Z,97350.88
2023-02-12T12:33:57.379Z,97314.38
2023-02-12T12:39:04.590Z,97359.34
2023-02-12T12:44:22.779Z,97354.91
2023-02-12T12:49:48.347Z,97362.03
2023-02-12T12:55:24.589Z,97368.81
2023-02-12T13:00:53.393Z,97368.66
2023-02-12T13:06:20.599Z,97378.78
2023-02-12T13:11:36.311Z,97357.41
2023-02-12T13:16:50.057Z,97388.59
2023-02-12T13:22:15.962Z,97395.03
2023-02-12T13:27:32.605Z,97397.97
2023-02-12T13:32:43.499Z,97375.75
2023-02-12T13:37:53.281Z,97405.72
2023-02-12T13:43:15.872Z,97373.50
2023-02-12T13:48:25.555Z,97445.13
2023-02-12T13:53:52.940Z,97454.88
2023-02-12T13:59:01.131Z,97449.56
2023-02-12T14:04:22.267Z,97467.69
2023-02-12T14:09:32.756Z,97476.88
2023-02-12T14:14:40.958Z,97483.56
2023-02-12T14:20:06.275Z,97483.13
2023-02-12T14:25:14.732Z,97520.00
2023-02-12T14:30:16.918Z,97518.53
2023-02-12T14:35:35.815Z,97527.09
2023-02-12T14:40:44.545Z,97539.88
2023-02-12T14:45:46.847Z,97503.88
2023-02-12T14:50:52.480Z,97540.06
2023-02-12T14:55:56.403Z,97567.41
2023-02-12T15:01:01.822Z,97539.09
2023-02-12T15:06:23.236Z,97581.44
2023-02-12T15:11:43.436Z,97609.06
2023-02-12T15:17:11.104Z,97607.56
2023-02-12T15:22:23.086Z,97581.00
2023-02-12T15:27:25.374Z,97590.53
2023-02-12T15:32:30.160Z,97625.78
2023-02-12T15:37:41.050Z,97583.50
2023-02-12T15:43:00.452Z,97628.22
2023-02-12T15:48:19.883Z,97632.50
2023-02-12T15:53:26.415Z,97623.13
2023-02-12T15:58:46.704Z,97656.66
2023-02-12T16:03:57.081Z,97648.94
2023-02-12T16:09:03.966Z,97679.91
2023-02-12T16:14:19.368Z,97693.69
2023-02-12T16:19:24.657Z,97730.03
2023-02-12T16:24:33.193Z,97719.66
2023-02-12T16:29:44.022Z,97701.69
2023-02-12T16:34:46.610Z,97690.47
2023-02-12T16:39:48.800Z,97762.81
2023-02-12T16:44:50.998Z,97728.44
2023-02-12T16:49:57.108Z,97776.75
2023-02-12T16:54:59.528Z,97737.19
2023-02-12T17:00:01.893Z,97739.78
2023-02-12T17:05:08.951Z,97737.25
2023-02-12T17:10:15.530Z,97766.59
2023-02-12T17:15:26.140Z,97753.72
2023-02-12T17:20:28.510Z,97756.28
2023-02-12T17:25:31.365Z,97811.41
2023-02-12T17:30:33.586Z,97805.41
2023-02-12T17:35:38.346Z,97806.34
2023-02-12T17:40:40.535Z,97785.69
2023-02-12T17:45:43.594Z,97821.13
2023-02-12T17:50:46.123Z,97804.75
2023-02-12T17:55:48.267Z,97788.38
2023-02-12T18:00:50.946Z,97825.41
2023-02-12T18:05:53.199Z,97786.59
2023-02-12T18:10:55.818Z,97851.25
2023-02-12T18:15:58.067Z,97829.66
2023-02-12T18:21:10.167Z,97788.00
2023-02-12T18:26:16.113Z,97803.56
2023-02-12T18:31:20.816Z,97843.19
2023-02-12T18:36:23.320Z,97844.81
2023-02-12T18:41:31.426Z,97883.53
2023-02-12T18:46:33.735Z,97883.59
2023-02-12T18:51:41.238Z,97823.97
2023-02-12T18:56:45.507Z,97882.66
2023-02-12T19:01:50.995Z,97855.56
2023-02-12T19:06:54.750Z,97901.34
2023-02-12T19:11:58.548Z,97871.13
2023-02-12T19:17:01.076Z,97892.72
2023-02-12T19:22:03.622Z,97901.50
2023-02-12T19:33:42.398Z,97907.34
2023-02-12T19:38:45.375Z,97878.78
2023-02-12T19:43:48.296Z,97916.63
2023-02-12T19:48:55.730Z,97917.22
2023-02-12T19:54:03.261Z,97884.47
2023-02-12T19:59:07.001Z,97892.91
2023-02-12T20:04:14.075Z,97909.25
2023-02-12T20:09:16.215Z,97906.66
2023-02-12T20:14:21.020Z,97881.56
2023-02-12T20:19:29.822Z,97926.41
2023-02-12T20:24:34.468Z,97951.28
2023-02-12T20:29:36.632Z,97953.72
2023-02-12T20:34:50.587Z,97970.06
2023-02-12T20:39:53.548Z,97969.16
2023-02-12T20:44:55.755Z,97967.63
2023-02-12T20:49:58.556Z,97978.25
2023-02-12T20:55:00.750Z,97976.00
2023-02-12T21:00:03.221Z,97967.59
2023-02-12T21:05:06.249Z,97980.63
2023-02-12T21:10:08.630Z,97988.28
2023-02-12T21:15:10.705Z,98007.94
2023-02-12T21:20:12.832Z,97976.69
2023-02-12T21:25:15.073Z,97983.66
2023-02-12T21:30:17.674Z,97995.53
2023-02-12T21:35:20.125Z,97977.34
2023-02-12T21:40:22.899Z,97982.91
2023-02-12T21:45:25.425Z,97999.69
2023-02-12T21:50:27.721Z,98004.84
2023-02-12T21:55:30.018Z,98001.44
2023-02-12T22:00:32.182Z,98003.88
2023-02-12T22:05:34.856Z,97991.88
2023-02-12T22:10:37.940Z,97996.28
2023-02-12T22:15:40.294Z,97998.22
2023-02-12T22:20:42.347Z,98006.09
2023-02-12T22:25:44.476Z,98009.38
2023-02-12T22:30:46.805Z,98027.47
2023-02-12T22:35:49.179Z,98006.22
2023-02-12T22:40:53.914Z,98021.94
2023-02-12T22:45:56.125Z,98019.06
2023-02-12T22:50:58.958Z,98021.59
2023-02-12T22:56:06.135Z,98016.38
2023-02-12T23:01:11.097Z,98037.91
2023-02-12T23:06:16.569Z,98029.88
2023-02-12T23:11:19.414Z,98030.47
2023-02-12T23:16:22.522Z,98040.63
2023-02-12T23:21:26.230Z,98044.88
2023-02-12T23:26:30.180Z,98045.69
2023-02-12T23:31:32.430Z,98047.22
2023-02-12T23:36:34.723Z,98041.84
2023-02-12T23:41:37.076Z,98021.72
2023-02-12T23:46:39.273Z,98012.03
2023-02-12T23:51:41.330Z,98043.72
2023-02-12T23:56:43.525Z,98070.38
